createdAt,value
2022-10-11T00:01:33.592Z,61.57
2022-10-11T00:04:02.704Z,61.55
2022-10-11T00:06:31.830Z,61.53
2022-10-11T00:09:00.956Z,61.50
2022-10-11T00:11:31.328Z,61.44
2022-10-11T00:14:00.582Z,61.49
2022-10-11T00:16:29.556Z,61.34
2022-10-11T00:18:58.595Z,61.42
2022-10-11T00:21:27.960Z,61.31
2022-10-11T00:23:57.064Z,61.30
2022-10-11T00:26:26.104Z,61.27
2022-10-11T00:28:56.898Z,61.21
2022-10-11T00:31:26.126Z,61.18
2022-10-11T00:33:55.826Z,61.18
2022-10-11T00:36:25.210Z,61.16
2022-10-11T00:38:54.140Z,61.10
2022-10-11T00:41:23.345Z,61.11
2022-10-11T00:44:12.725Z,61.09
2022-10-11T00:46:45.498Z,61.09
2022-10-11T00:49:20.726Z,61.21
2022-10-11T00:51:54.765Z,61.13
2022-10-11T00:54:28.556Z,60.94
2022-10-11T00:57:03.224Z,61.08
2022-10-11T00:59:39.390Z,61.05
2022-10-11T01:02:09.817Z,61.14
2022-10-11T01:04:39.204Z,61.17
2022-10-11T01:07:08.246Z,61.16
2022-10-11T01:09:37.645Z,61.29
2022-10-11T01:12:16.095Z,61.51
2022-10-11T01:15:13.293Z,61.49
2022-10-11T01:17:50.825Z,61.53
2022-10-11T01:20:50.158Z,61.63
2022-10-11T01:23:30.991Z,61.67
2022-10-11T01:26:28.949Z,61.78
2022-10-11T01:29:11.173Z,62.14
2022-10-11T01:31:50.466Z,62.16
2022-10-11T01:34:26.531Z,62.23
2022-10-11T01:37:05.729Z,62.52
2022-10-11T01:39:40.843Z,62.61
2022-10-11T01:42:13.753Z,62.67
2022-10-11T01:44:47.574Z,62.71
2022-10-11T01:47:22.753Z,62.90
2022-10-11T01:49:59.361Z,62.68
2022-10-11T01:52:30.675Z,62.99
2022-10-11T01:55:25.150Z,62.97
2022-10-11T01:58:15.255Z,63.20
2022-10-11T02:00:52.999Z,63.46
2022-10-11T02:03:33.617Z,63.48
2022-10-11T02:06:11.723Z,63.81
2022-10-11T02:08:51.181Z,63.93
2022-10-11T02:11:25.414Z,64.12
2022-10-11T02:13:58.885Z,64.52
2022-10-11T02:16:33.179Z,64.48
2022-10-11T02:19:06.004Z,64.48
2022-10-11T02:21:40.182Z,64.42
2022-10-11T02:24:14.561Z,64.50
2022-10-11T02:26:48.777Z,64.54
2022-10-11T02:29:19.530Z,64.40
2022-10-11T02:31:51.468Z,64.46
2022-10-11T02:34:26.061Z,64.47
2022-10-11T02:37:00.919Z,64.39
2022-10-11T02:39:36.121Z,64.40
2022-10-11T02:42:10.920Z,64.45
2022-10-11T02:44:44.738Z,64.36
2022-10-11T02:47:15.211Z,64.59
2022-10-11T02:49:45.791Z,64.58
2022-10-11T02:52:16.220Z,64.72
2022-10-11T02:54:45.257Z,65.06
2022-10-11T02:57:14.172Z,65.09
2022-10-11T02:59:43.315Z,65.21
2022-10-11T03:02:12.352Z,65.55
2022-10-11T03:04:41.317Z,65.64
2022-10-11T03:07:12.174Z,66.20
2022-10-11T03:09:41.177Z,66.00
2022-10-11T03:12:10.244Z,66.20
2022-10-11T03:14:39.542Z,66.17
2022-10-11T03:17:34.443Z,66.77
2022-10-11T03:19:57.787Z,66.90
2022-10-11T03:22:28.152Z,68.02
2022-10-11T03:25:02.496Z,67.23
2022-10-11T03:27:33.258Z,67.58
2022-10-11T03:30:02.517Z,67.53
2022-10-11T03:32:32.331Z,67.74
2022-10-11T03:35:01.492Z,68.04
2022-10-11T03:37:33.794Z,68.50
2022-10-11T03:40:03.364Z,67.64
2022-10-11T03:42:32.394Z,68.04
2022-10-11T03:45:04.774Z,68.21
2022-10-11T03:47:34.072Z,67.75
2022-10-11T03:50:03.074Z,68.26
2022-10-11T03:52:35.136Z,68.04
2022-10-11T03:55:04.946Z,67.89
2022-10-11T03:57:33.672Z,67.50
2022-10-11T04:00:02.794Z,67.85
2022-10-11T04:02:38.955Z,68.40
2022-10-11T04:05:08.852Z,67.80
2022-10-11T04:07:39.733Z,67.96
2022-10-11T04:10:09.750Z,67.83
2022-10-11T04:12:39.872Z,68.01
2022-10-11T04:15:08.949Z,68.20
2022-10-11T04:17:38.125Z,68.29
2022-10-11T04:20:08.659Z,68.20
2022-10-11T04:22:39.202Z,67.99
2022-10-11T04:25:10.415Z,67.77
2022-10-11T04:27:39.614Z,67.98
2022-10-11T04:30:10.040Z,68.17
2022-10-11T04:32:39.297Z,67.97
2022-10-11T04:35:08.744Z,68.25
2022-10-11T04:37:38.995Z,67.66
2022-10-11T04:40:10.252Z,68.14
2022-10-11T04:42:39.241Z,67.78
2022-10-11T04:45:09.482Z,67.93
2022-10-11T04:47:40.502Z,67.79
2022-10-11T04:50:09.834Z,68.09
2022-10-11T04:52:40.152Z,67.64
2022-10-11T04:55:10.043Z,67.75
2022-10-11T04:57:39.339Z,68.05
2022-10-11T05:00:09.832Z,68.42
2022-10-11T05:02:38.935Z,68.43
2022-10-11T05:05:08.836Z,67.89
2022-10-11T05:07:38.287Z,68.04
2022-10-11T05:10:10.103Z,67.78
2022-10-11T05:12:39.389Z,67.69
2022-10-11T05:15:09.817Z,67.75
2022-10-11T05:17:38.957Z,67.83
2022-10-11T05:20:09.209Z,67.94
2022-10-11T05:22:38.221Z,68.29
2022-10-11T05:25:09.244Z,67.52
2022-10-11T05:27:38.487Z,67.63
2022-10-11T05:30:08.582Z,67.69
2022-10-11T05:32:37.763Z,67.70
2022-10-11T05:35:07.673Z,67.54
2022-10-11T05:37:36.732Z,67.66
2022-10-11T05:40:08.529Z,67.92
2022-10-11T05:42:37.558Z,67.88
2022-10-11T05:45:07.661Z,67.66
2022-10-11T05:47:36.719Z,67.51
2022-10-11T05:50:07.167Z,67.53
2022-10-11T05:52:36.825Z,67.59
2022-10-11T05:55:08.167Z,67.51
2022-10-11T05:57:37.502Z,67.51
2022-10-11T06:00:07.596Z,67.87
2022-10-11T06:02:41.466Z,67.76
2022-10-11T06:05:10.930Z,67.62
2022-10-11T06:07:40.402Z,67.70
2022-10-11T06:10:11.869Z,67.89
2022-10-11T06:12:41.103Z,67.82
2022-10-11T06:15:11.403Z,67.81
2022-10-11T06:17:40.880Z,67.88
2022-10-11T06:20:11.092Z,68.03
2022-10-11T06:22:40.371Z,67.92
2022-10-11T06:25:11.152Z,67.84
2022-10-11T06:27:40.267Z,67.78
2022-10-11T06:30:10.541Z,68.11
2022-10-11T06:32:39.622Z,67.93
2022-10-11T06:35:09.565Z,68.09
2022-10-11T06:37:38.646Z,68.04
2022-10-11T06:40:08.676Z,67.90
2022-10-11T06:42:39.243Z,68.34
2022-10-11T06:45:09.172Z,67.99
2022-10-11T06:47:38.364Z,67.84
2022-10-11T06:50:07.923Z,68.31
2022-10-11T06:52:37.171Z,67.88
2022-10-11T06:55:07.084Z,67.97
2022-10-11T06:57:36.353Z,67.87
2022-10-11T07:00:12.672Z,67.93
2022-10-11T07:02:42.188Z,67.75
2022-10-11T07:05:11.958Z,68.05
2022-10-11T07:07:40.964Z,68.18
2022-10-11T07:10:10.982Z,67.77
2022-10-11T07:12:40.012Z,67.65
2022-10-11T07:15:11.414Z,67.69
2022-10-11T07:17:40.796Z,67.73
2022-10-11T07:20:10.786Z,67.67
2022-10-11T07:22:39.886Z,67.68
2022-10-11T07:25:09.733Z,67.56
2022-10-11T07:27:40.058Z,67.52
2022-10-11T07:30:11.995Z,67.78
2022-10-11T07:32:41.204Z,67.49
2022-10-11T07:35:10.406Z,67.47
2022-10-11T07:37:39.446Z,67.20
2022-10-11T07:40:11.330Z,67.25
2022-10-11T07:42:40.626Z,67.11
2022-10-11T07:45:11.577Z,67.13
2022-10-11T07:47:40.696Z,66.90
2022-10-11T07:50:10.810Z,66.93
2022-10-11T07:52:40.355Z,66.85
2022-10-11T07:55:10.325Z,66.52
2022-10-11T07:57:39.334Z,66.53
2022-10-11T08:00:11.330Z,66.53
2022-10-11T08:02:43.125Z,66.42
2022-10-11T08:05:12.461Z,66.34
2022-10-11T08:07:41.684Z,66.40
2022-10-11T08:10:11.709Z,66.40
2022-10-11T08:12:40.843Z,66.28
2022-10-11T08:15:12.254Z,66.23
2022-10-11T08:17:41.795Z,65.77
2022-10-11T08:20:11.750Z,65.88
2022-10-11T08:22:40.898Z,66.02
2022-10-11T08:25:10.600Z,66.16
2022-10-11T08:27:39.417Z,65.89
2022-10-11T08:30:11.266Z,65.58
2022-10-11T08:32:41.155Z,65.64
2022-10-11T08:35:10.466Z,65.69
2022-10-11T08:37:39.362Z,64.79
2022-10-11T08:40:13.125Z,64.66
2022-10-11T08:42:47.624Z,64.72
2022-10-11T08:45:28.180Z,64.24
2022-10-11T08:48:12.518Z,64.45
2022-10-11T08:50:42.245Z,64.05
2022-10-11T08:53:16.704Z,64.38
2022-10-11T08:55:51.107Z,64.27
2022-10-11T08:58:24.781Z,64.06
2022-10-11T09:00:57.752Z,64.12
2022-10-11T09:03:37.857Z,63.69
2022-10-11T09:06:16.217Z,63.80
2022-10-11T09:09:00.645Z,63.31
2022-10-11T09:11:40.723Z,63.69
2022-10-11T09:14:31.604Z,63.56
2022-10-11T09:17:08.698Z,63.12
2022-10-11T09:19:59.840Z,63.08
2022-10-11T09:22:38.786Z,63.00
2022-10-11T09:25:22.037Z,62.82
2022-10-11T09:28:03.537Z,62.70
2022-10-11T09:30:34.319Z,62.48
2022-10-11T09:33:14.546Z,62.92
2022-10-11T09:35:47.565Z,62.92
2022-10-11T09:38:32.161Z,63.06
2022-10-11T09:41:14.407Z,62.66
2022-10-11T09:43:48.613Z,61.77
2022-10-11T09:46:24.966Z,61.82
2022-10-11T09:48:57.119Z,62.02
2022-10-11T09:51:28.645Z,61.14
2022-10-11T09:53:59.637Z,61.26
2022-10-11T09:56:31.337Z,60.57
2022-10-11T09:59:28.320Z,60.62
2022-10-11T10:02:19.180Z,61.14
2022-10-11T10:05:18.912Z,61.36
2022-10-11T10:08:24.875Z,61.35
2022-10-11T10:11:02.145Z,61.25
2022-10-11T10:13:41.954Z,60.90
2022-10-11T10:16:23.674Z,61.39
2022-10-11T10:18:55.709Z,61.26
2022-10-11T10:21:32.911Z,60.27
2022-10-11T10:24:06.433Z,60.85
2022-10-11T10:26:36.223Z,60.00
2022-10-11T10:29:20.236Z,60.10
2022-10-11T10:32:13.371Z,58.45
2022-10-11T10:35:03.282Z,58.99
2022-10-11T10:37:39.949Z,58.87
2022-10-11T10:40:15.499Z,57.93
2022-10-11T10:42:44.894Z,58.51
2022-10-11T10:45:20.897Z,59.07
2022-10-11T10:48:05.325Z,58.87
2022-10-11T10:50:46.763Z,59.02
2022-10-11T10:53:26.537Z,59.19
2022-10-11T10:56:04.384Z,59.34
2022-10-11T10:58:46.038Z,59.18
2022-10-11T11:01:21.188Z,59.29
2022-10-11T11:03:58.872Z,59.46
2022-10-11T11:06:36.816Z,59.46
2022-10-11T11:09:25.271Z,59.53
2022-10-11T11:12:08.554Z,59.41
2022-10-11T11:14:48.775Z,58.81
2022-10-11T11:17:31.437Z,58.78
2022-10-11T11:20:16.572Z,59.06
2022-10-11T11:22:53.846Z,58.62
2022-10-11T11:25:36.483Z,58.94
2022-10-11T11:28:19.935Z,58.69
2022-10-11T11:30:58.232Z,58.23
2022-10-11T11:33:44.051Z,58.24
2022-10-11T11:36:23.378Z,58.39
2022-10-11T11:38:59.545Z,58.65
2022-10-11T11:41:37.655Z,58.98
2022-10-11T11:44:12.935Z,58.87
2022-10-11T11:46:47.496Z,58.89
2022-10-11T11:49:22.740Z,58.98
2022-10-11T11:51:52.659Z,59.15
2022-10-11T11:54:31.022Z,59.09
2022-10-11T11:57:08.499Z,59.35
2022-10-11T11:59:44.743Z,59.19
2022-10-11T12:02:44.726Z,59.08
2022-10-11T12:05:17.205Z,58.87
2022-10-11T12:07:56.807Z,58.88
2022-10-11T12:10:28.123Z,59.24
2022-10-11T12:13:11.232Z,59.29
2022-10-11T12:15:40.646Z,58.88
2022-10-11T12:18:17.837Z,58.75
2022-10-11T12:20:47.886Z,58.53
2022-10-11T12:23:42.668Z,57.95
2022-10-11T12:26:41.257Z,58.05
2022-10-11T12:29:42.548Z,57.70
2022-10-11T12:32:48.257Z,57.54
2022-10-11T12:36:02.683Z,56.86
2022-10-11T12:38:37.361Z,56.61
2022-10-11T12:41:39.116Z,55.93
2022-10-11T12:44:21.530Z,56.36
2022-10-11T12:47:19.145Z,56.15
2022-10-11T12:50:02.629Z,55.90
2022-10-11T12:52:41.487Z,55.55
2022-10-11T12:55:39.539Z,55.41
2022-10-11T12:58:38.850Z,55.63
2022-10-11T13:01:18.067Z,55.45
2022-10-11T13:03:53.190Z,55.23
2022-10-11T13:06:25.289Z,55.42
2022-10-11T13:08:57.770Z,55.62
2022-10-11T13:11:36.715Z,56.07
2022-10-11T13:14:16.033Z,56.26
2022-10-11T13:16:51.789Z,56.56
2022-10-11T13:19:24.231Z,56.91
2022-10-11T13:21:56.473Z,57.26
2022-10-11T13:24:28.577Z,57.28
2022-10-11T13:26:59.165Z,57.48
2022-10-11T13:29:34.561Z,57.80
2022-10-11T13:32:07.130Z,57.90
2022-10-11T13:34:41.191Z,58.50
2022-10-11T13:37:17.516Z,58.91
2022-10-11T13:39:48.386Z,59.46
2022-10-11T13:42:19.643Z,59.13
2022-10-11T13:44:49.271Z,58.53
2022-10-11T13:47:22.213Z,59.08
2022-10-11T13:50:04.879Z,59.62
2022-10-11T13:52:36.423Z,58.65
2022-10-11T13:55:14.738Z,59.23
2022-10-11T13:57:47.080Z,58.62
2022-10-11T14:00:30.135Z,58.30
2022-10-11T14:03:03.952Z,56.60
2022-10-11T14:05:38.588Z,56.84
2022-10-11T14:08:20.538Z,56.36
2022-10-11T14:10:55.645Z,56.38
2022-10-11T14:13:30.780Z,55.50
2022-10-11T14:16:06.823Z,54.72
2022-10-11T14:18:47.397Z,55.14
2022-10-11T14:21:36.820Z,55.23
2022-10-11T14:24:08.333Z,55.13
2022-10-11T14:26:40.196Z,55.36
2022-10-11T14:29:13.602Z,55.36
2022-10-11T14:31:43.262Z,55.58
2022-10-11T14:34:17.440Z,55.73
2022-10-11T14:36:50.193Z,56.07
2022-10-11T14:39:21.711Z,56.25
2022-10-11T14:41:53.248Z,56.38
2022-10-11T14:44:23.937Z,56.51
2022-10-11T14:46:54.682Z,56.50
2022-10-11T14:49:26.242Z,56.63
2022-10-11T14:51:59.900Z,56.86
2022-10-11T14:54:30.714Z,56.89
2022-10-11T14:57:03.873Z,57.17
2022-10-11T14:59:37.100Z,57.11
2022-10-11T15:02:08.045Z,57.38
2022-10-11T15:04:37.414Z,57.51
2022-10-11T15:07:07.865Z,57.44
2022-10-11T15:09:36.930Z,57.86
2022-10-11T15:12:06.427Z,58.04
2022-10-11T15:14:35.270Z,57.94
2022-10-11T15:17:04.187Z,58.21
2022-10-11T15:19:33.447Z,58.51
2022-10-11T15:22:04.629Z,58.64
2022-10-11T15:24:35.100Z,58.83
2022-10-11T15:27:04.543Z,58.69
2022-10-11T15:29:33.501Z,58.98
2022-10-11T15:32:02.545Z,59.04
2022-10-11T15:34:31.729Z,59.04
2022-10-11T15:37:00.781Z,59.14
2022-10-11T15:39:33.721Z,59.24
2022-10-11T15:42:04.328Z,59.32
2022-10-11T15:44:33.429Z,59.47
2022-10-11T15:47:02.558Z,59.64
2022-10-11T15:49:31.723Z,59.73
2022-10-11T15:52:01.018Z,59.79
2022-10-11T15:54:30.346Z,59.96
2022-10-11T15:56:59.334Z,59.89
2022-10-11T15:59:29.980Z,59.96
2022-10-11T16:01:59.498Z,59.83
2022-10-11T16:04:28.565Z,59.84
2022-10-11T16:06:57.527Z,59.79
2022-10-11T16:09:26.560Z,59.88
2022-10-11T16:11:55.692Z,59.85
2022-10-11T16:14:24.792Z,59.87
2022-10-11T16:16:55.279Z,59.84
2022-10-11T16:19:24.520Z,59.80
2022-10-11T16:21:53.699Z,59.72
2022-10-11T16:24:22.738Z,59.75
2022-10-11T16:26:51.859Z,59.80
2022-10-11T16:29:20.885Z,59.84
2022-10-11T16:31:50.063Z,59.77
2022-10-11T16:34:20.509Z,59.84
2022-10-11T16:36:49.971Z,59.93
2022-10-11T16:39:19.871Z,59.97
2022-10-11T16:41:50.517Z,59.90
2022-10-11T16:44:21.990Z,59.87
2022-10-11T16:46:52.362Z,59.99
2022-10-11T16:49:24.826Z,59.99
2022-10-11T16:51:56.248Z,60.20
2022-10-11T16:54:27.121Z,60.13
2022-10-11T16:56:56.559Z,59.98
2022-10-11T16:59:25.740Z,60.03
2022-10-11T17:01:55.263Z,59.97
2022-10-11T17:04:25.785Z,60.19
2022-10-11T17:06:56.441Z,60.04
2022-10-11T17:09:26.310Z,60.10
2022-10-11T17:11:55.699Z,60.13
2022-10-11T17:14:24.650Z,60.06
2022-10-11T17:16:53.856Z,60.24
2022-10-11T17:19:24.523Z,60.14
2022-10-11T17:21:53.833Z,60.26
2022-10-11T17:24:22.755Z,60.21
2022-10-11T17:26:51.993Z,60.35
2022-10-11T17:29:22.145Z,60.35
2022-10-11T17:31:52.032Z,60.38
2022-10-11T17:34:20.731Z,60.29
2022-10-11T17:36:51.951Z,60.42
2022-10-11T17:39:23.632Z,60.38
2022-10-11T17:41:53.572Z,60.29
2022-10-11T17:44:22.325Z,60.30
2022-10-11T17:46:51.830Z,60.36
2022-10-11T17:49:20.747Z,60.41
2022-10-11T17:51:51.262Z,60.26
2022-10-11T17:54:20.330Z,60.35
2022-10-11T17:56:50.343Z,60.42
2022-10-11T17:59:22.246Z,60.40
2022-10-11T18:01:51.726Z,60.49
2022-10-11T18:04:21.684Z,60.40
2022-10-11T18:06:52.081Z,60.67
2022-10-11T18:09:21.976Z,60.76
2022-10-11T18:11:50.737Z,60.56
2022-10-11T18:14:20.780Z,60.83
2022-10-11T18:16:51.073Z,60.72
2022-10-11T18:19:20.309Z,61.02
2022-10-11T18:21:49.316Z,61.08
2022-10-11T18:24:19.910Z,61.06
2022-10-11T18:26:49.629Z,61.11
2022-10-11T18:29:18.564Z,61.11
2022-10-11T18:31:48.347Z,61.28
2022-10-11T18:34:17.403Z,61.34
2022-10-11T18:36:46.535Z,61.46
2022-10-11T18:39:16.714Z,61.47
2022-10-11T18:41:47.351Z,61.61
2022-10-11T18:44:17.412Z,61.51
2022-10-11T18:46:47.167Z,61.52
2022-10-11T18:49:16.310Z,61.43
2022-10-11T18:51:47.991Z,61.41
2022-10-11T18:54:21.295Z,61.43
2022-10-11T18:56:52.024Z,61.59
2022-10-11T18:59:23.097Z,61.71
2022-10-11T19:01:52.688Z,61.63
2022-10-11T19:04:22.276Z,61.72
2022-10-11T19:06:53.287Z,61.81
2022-10-11T19:09:24.862Z,61.91
2022-10-11T19:11:57.365Z,62.00
2022-10-11T19:14:28.492Z,62.15
2022-10-11T19:16:58.391Z,62.37
2022-10-11T19:19:28.614Z,62.17
2022-10-11T19:21:58.279Z,62.45
2022-10-11T19:24:29.519Z,62.60
2022-10-11T19:27:03.031Z,62.63
2022-10-11T19:29:35.951Z,62.55
2022-10-11T19:32:05.253Z,62.80
2022-10-11T19:34:34.916Z,62.69
2022-10-11T19:37:05.201Z,62.86
2022-10-11T19:39:34.688Z,62.92
2022-10-11T19:42:05.085Z,63.04
2022-10-11T19:44:38.696Z,62.93
2022-10-11T19:47:10.195Z,63.00
2022-10-11T19:49:39.318Z,62.97
2022-10-11T19:52:09.497Z,62.98
2022-10-11T19:54:38.813Z,63.18
2022-10-11T19:57:09.544Z,63.24
2022-10-11T19:59:39.088Z,63.13
2022-10-11T20:02:10.412Z,63.19
2022-10-11T20:04:52.164Z,63.21
2022-10-11T20:07:22.528Z,63.24
2022-10-11T20:09:51.948Z,63.07
2022-10-11T20:12:22.619Z,63.22
2022-10-11T20:14:51.774Z,63.12
2022-10-11T20:17:20.721Z,63.07
2022-10-11T20:19:49.831Z,63.11
2022-10-11T20:22:19.054Z,63.08
2022-10-11T20:24:48.164Z,62.89
2022-10-11T20:27:17.403Z,63.13
2022-10-11T20:29:48.904Z,62.96
2022-10-11T20:32:18.172Z,62.93
2022-10-11T20:34:47.467Z,62.98
2022-10-11T20:37:16.524Z,62.98
2022-10-11T20:39:45.664Z,62.76
2022-10-11T20:42:14.701Z,62.63
2022-10-11T20:44:44.644Z,62.59
2022-10-11T20:47:15.178Z,62.61
2022-10-11T20:49:44.506Z,62.69
2022-10-11T20:52:13.428Z,62.72
2022-10-11T20:54:42.707Z,62.65
2022-10-11T20:57:11.861Z,62.50
2022-10-11T20:59:41.143Z,62.44
2022-10-11T21:02:16.603Z,62.40
2022-10-11T21:04:49.357Z,62.62
2022-10-11T21:07:18.510Z,62.39
2022-10-11T21:09:47.654Z,62.63
2022-10-11T21:12:16.660Z,62.42
2022-10-11T21:14:45.786Z,62.67
2022-10-11T21:17:14.904Z,62.70
2022-10-11T21:19:44.030Z,62.87
2022-10-11T21:22:14.672Z,62.82
2022-10-11T21:24:43.605Z,63.03
2022-10-11T21:27:12.983Z,62.92
2022-10-11T21:29:42.023Z,63.20
2022-10-11T21:32:14.251Z,63.01
2022-10-11T21:34:43.871Z,63.21
2022-10-11T21:37:14.181Z,63.17
2022-10-11T21:39:43.309Z,63.37
2022-10-11T21:42:12.440Z,63.13
2022-10-11T21:44:43.393Z,63.09
2022-10-11T21:47:12.978Z,63.24
2022-10-11T21:49:42.023Z,63.29
2022-10-11T21:52:11.509Z,63.07
2022-10-11T21:54:41.908Z,63.34
2022-10-11T21:57:11.159Z,63.35
2022-10-11T21:59:40.120Z,63.41
2022-10-11T22:02:09.298Z,63.81
2022-10-11T22:04:38.928Z,63.86
2022-10-11T22:07:08.033Z,63.92
2022-10-11T22:09:37.061Z,63.98
2022-10-11T22:12:08.230Z,64.10
2022-10-11T22:14:37.435Z,64.29
2022-10-11T22:17:06.443Z,64.57
2022-10-11T22:19:35.763Z,64.79
2022-10-11T22:22:04.792Z,64.80
2022-10-11T22:24:33.993Z,65.10
2022-10-11T22:27:03.174Z,64.99
2022-10-11T22:29:34.492Z,65.17
2022-10-11T22:32:03.848Z,65.01
2022-10-11T22:34:33.679Z,65.08
2022-10-11T22:37:02.594Z,64.90
2022-10-11T22:39:31.948Z,65.10
2022-10-11T22:42:01.039Z,65.04
2022-10-11T22:44:30.347Z,65.13
2022-10-11T22:47:01.104Z,65.16
2022-10-11T22:49:30.303Z,65.29
2022-10-11T22:51:59.354Z,65.14
2022-10-11T22:54:28.697Z,65.20
2022-10-11T22:56:57.705Z,65.29
2022-10-11T22:59:26.755Z,65.41
2022-10-11T23:01:56.176Z,65.44
2022-10-11T23:04:26.660Z,65.48
2022-10-11T23:07:21.027Z,65.54
2022-10-11T23:09:50.129Z,65.44
2022-10-11T23:12:19.156Z,65.30
2022-10-11T23:14:48.459Z,65.14
2022-10-11T23:17:17.455Z,65.12
2022-10-11T23:19:47.934Z,65.00
2022-10-11T23:22:17.480Z,65.12
2022-10-11T23:24:46.509Z,65.11
2022-10-11T23:27:15.949Z,64.91
2022-10-11T23:29:45.237Z,64.89
2022-10-11T23:32:14.362Z,64.92
2022-10-11T23:34:43.398Z,64.71
2022-10-11T23:37:14.244Z,64.70
2022-10-11T23:39:43.336Z,64.89
2022-10-11T23:42:12.620Z,64.70
2022-10-11T23:44:41.732Z,64.69
2022-10-11T23:47:10.862Z,64.81
2022-10-11T23:49:40.339Z,64.84
2022-10-11T23:52:09.396Z,65.04
2022-10-11T23:54:39.951Z,65.16
2022-10-11T23:57:09.596Z,65.21
2022-10-11T23:59:38.644Z,65.43
